North Spring Valley, Nevada Weather observations

Data are for 10 minute period ending at time listed.
 Day   Time   Solar   Ave.   Ave.  Ave.  Vector  Max.   Baro.   Total    
  of    of     Rad.   Air    Rel.  Wind   Wind   Wind  Press.  Precip.   
Year   Day            Temp.  Hum.  Speed  Dir.   Gust                    
2014   (PST)  Kw/m2    F      %     mph   deg.    mph    mb.     in.     
-------------------------------------------------------------------------
 293    7:20   0.22   45.6    64    2.0   107     2.9   828.4    0.00 
 293    7:30   0.25   45.8    61    2.3   110     3.9   828.6    0.00 
 293    7:40   0.29   47.3    58    2.1   113     3.1   828.8    0.00 
 293    7:50   0.32   48.7    54    1.4   109     3.1   828.8    0.00 
 293    8:00   0.35   50.5    51    0.8    90     2.1   828.7    0.00 
 293    8:10   0.38   53.0    48    0.5   288     2.4   828.8    0.00 
 293    8:20   0.41   53.5    48    0.6    13     2.1   828.8    0.00 
 293    8:30   0.42   54.6    45    0.9    71     3.1   828.8    0.00 
 293    8:40   0.47   56.4    44    1.6   124     3.7   828.8    0.00 
 293    8:50   0.50   55.3    44    1.9    90     4.9   828.8    0.00 
 293    9:00   0.52   56.2    43    2.0    94     4.8   828.7    0.00 
 293    9:10   0.55   57.0    42    2.3    89     4.2   828.6    0.00 
 293    9:20   0.57   57.5    41    2.2    99     5.0   828.5    0.00 
 293    9:30   0.59   58.3    40    2.7    95     6.1   828.4    0.00 
 293    9:40   0.61   58.4    40    2.3   108     5.0   828.4    0.00 
 293    9:50   0.63   59.3    39    2.3   104     6.6   828.3    0.00 
 293   10:00   0.65   60.4    37    1.8    91     4.9   828.1    0.00 
 293   10:10   0.66   61.0    37    2.6   147     5.8   828.0    0.00 
 293   10:20   0.68   61.5    37    2.8    88     6.1   827.9    0.00 
 293   10:30   0.69   62.2    36    3.5   129     7.2   827.8    0.00 
 293   10:40   0.70   62.8    36    3.7   108     6.7   827.6    0.00 
 293   10:50   0.71   64.5    34    1.6   184     6.6   827.4    0.00 
 293   11:00   0.72   66.3    33    4.1   148     7.7   827.1    0.00 
 293   11:10   0.73   68.8    30    5.4   155    10.8   826.9    0.00 
 293   11:20   0.74   70.8    26   10.8   159    22.9   826.5    0.00 
 293   11:30   0.56   71.4    26   14.5   163    19.9   826.2    0.00 
 293   11:40   0.76   72.1    25   14.8   160    22.7   825.9    0.00 
 293   11:50   0.64   72.2    25   15.8   165    23.3   825.7    0.00 
 293   12:00   0.64   72.1    24   16.6   166    23.8   825.5    0.00 
 293   12:10   0.74   72.9    24   16.2   158    23.2   825.3    0.00 
 293   12:20   0.72   73.1    24   17.2   162    23.7   825.2    0.00 
 293   12:30   0.71   73.0    24   17.4   158    25.0   825.1    0.00 
 293   12:40   0.70   72.9    24   19.4   160    27.1   824.9    0.00 
 293   12:50   0.65   72.9    23   17.8   159    25.7   824.8    0.00 
 293   13:00   0.67   73.6    23   17.1   162    26.6   824.7    0.00 
 293   13:10   0.64   73.7    23   15.7   160    22.5   824.6    0.00 
 293   13:20   0.63   73.3    23   17.9   154    25.9   824.5    0.00 
 293   13:30   0.60   73.4    23   16.5   164    23.2   824.5    0.00 
 293   13:40   0.42   72.6    23   15.7   168    24.2   824.5    0.00 
 293   13:50   0.48   73.3    23   14.3   159    24.0   824.4    0.00 
 293   14:00   0.51   73.5    22   17.3   169    24.3   824.4    0.00 
 293   14:10   0.17   72.1    23   15.7   165    25.5   824.3    0.00 
 293   14:20   0.36   72.3    22   17.0   161    23.2   824.3    0.00 
 293   14:30   0.16   71.4    23   15.6   161    22.0   824.2    0.00 
 293   14:40   0.14   70.9    23   15.3   169    22.5   824.2    0.00 
 293   14:50   0.09   70.6    23   15.2   170    22.1   824.2    0.00 
 293   15:00   0.05   69.7    24   15.3   166    22.8   824.2    0.00 
 293   15:10   0.04   69.2    24   13.4   168    20.8   824.2    0.00 
 293   15:20   0.16   69.1    24   13.3   169    19.5   824.1    0.00 
 293   15:30   0.18   70.3    23   13.3   169    22.2   824.1    0.00 
 293   15:40   0.18   69.6    24   11.9   169    17.5   824.0    0.00 
 293   15:50   0.20   70.4    23   11.9   171    16.9   824.0    0.00 
 293   16:00   0.13   69.2    24   11.7   166    17.3   823.8    0.00 
 293   16:10   0.03   67.1    26   10.7   167    15.6   823.7    0.00 
 293   16:20   0.03   66.1    27    9.6   167    17.0   823.8    0.00 
 293   16:30   0.02   64.2    30    6.8   169     9.4   823.8    0.00 
 293   16:40   0.01   62.9    31    5.1   186     7.1   823.8    0.00 
 293   16:50   0.01   62.2    31    5.2   194     6.7   823.8    0.00 
 293   17:00   0.00   62.4    30    5.4   189     8.0   823.9    0.00 
 293   17:10   0.00   62.7    30    4.5   190     7.5   824.0    0.00 
 293   17:20   0.00   62.2    30    3.5   183     5.3   824.0    0.00 
 293   17:30   0.00   57.6    36    3.3   154     4.5   824.0    0.00 
 293   17:40   0.00   55.8    40    3.1   165     4.4   824.1    0.00 
 293   17:50   0.00   55.0    41    4.1   167     5.8   824.1    0.00 
 293   18:00   0.00   54.3    42    4.2   164     6.3   824.2    0.00 
 293   18:10   0.00   52.9    43    3.8   173     6.9   824.2    0.00 
 293   18:20   0.00   55.1    42    5.7   171     8.8   824.1    0.00 
 293   18:30   0.00   57.8    38    6.4   174     9.2   824.0    0.00 
 293   18:40   0.00   54.9    42    4.3   160    10.2   824.1    0.00 
 293   18:50   0.00   57.8    38    9.6   189    14.5   824.1    0.00 
 293   19:00   0.00   58.5    37    9.6   189    14.1   824.0    0.00 
 293   19:10   0.00   58.5    37    9.4   192    14.0   824.1    0.00 
 293   19:20   0.00   58.3    37    8.7   191    14.6   824.1    0.00 
 293   19:30   0.00   58.2    37    7.8   183    13.1   824.1    0.00 
 293   19:40   0.00   58.3    37   12.2   180    17.8   824.0    0.00 
 293   19:50   0.00   58.4    38   11.4   180    17.5   824.1    0.00 
 293   20:00   0.00   57.9    39   10.5   177    15.2   824.1    0.00 
 293   20:10   0.00   58.1    39   11.4   179    15.6   824.1    0.00 
 293   20:20   0.00   58.0    39   11.8   179    17.2   824.0    0.00 
 293   20:30   0.00   57.9    39   10.9   184    14.1   824.0    0.00 
 293   20:40   0.00   57.5    40    7.8   181    11.9   824.1    0.00 
 293   20:50   0.00   57.8    40    9.0   167    13.2   824.2    0.00 
 293   21:00   0.00   59.1    38   12.5   158    19.6   824.1    0.00 
 293   21:10   0.00   60.2    36   14.1   145    23.5   823.9    0.00 
 293   21:20   0.00   61.1    35   12.5   164    20.8   823.9    0.00 
 293   21:30   0.00   59.8    37   11.2   176    18.8   823.9    0.00 
 293   21:40   0.00   58.8    39    9.7   174    13.4   824.0    0.00 
 293   21:50   0.00   58.3    40    8.4   162    13.4   823.9    0.00 
 293   22:00   0.00   58.2    41    7.3   144    13.2   823.8    0.00 
 293   22:10   0.00   58.2    41    8.1   166    16.1   823.9    0.00 
 293   22:20   0.00   57.8    41    5.8   149    10.5   823.8    0.00 
 293   22:30   0.00   57.8    42   10.9   170    19.7   823.7    0.00 
 293   22:40   0.00   58.6    41   13.4   191    21.2   823.6    0.00 
 293   22:50   0.00   58.2    42   13.1   182    18.4   823.6    0.00 
 293   23:00   0.00   58.2    42   11.6   176    16.7   823.6    0.00 
 293   23:10   0.00   58.8    41   11.2   177    18.2   823.6    0.00 
 293   23:20   0.00   59.5    40   12.4   169    17.7   823.6    0.00 
 293   23:30   0.00   59.2    41   12.4   162    20.3   823.7    0.00 
 293   23:40   0.00   58.9    42   13.4   157    19.5   823.6    0.00 
 293   23:50   0.00   58.7    42   15.6   151    22.0   823.6    0.00 
 294    0:00   0.00   57.8    44   14.5   155    23.0   823.6    0.00 
 294    0:10   0.00   56.3    46   12.6   160    17.8   823.6    0.00 
 294    0:20   0.00   55.4    47   10.1   174    17.0   823.7    0.00 
 294    0:30   0.00   54.7    48    7.4   192    12.6   823.7    0.00 
 294    0:40   0.00   53.9    50    7.8   198    12.2   823.6    0.00 
 294    0:50   0.00   53.4    51    6.8   187    13.4   823.4    0.00 
 294    1:00   0.00   52.9    52    7.4   187    13.3   823.3    0.00 
 294    1:10   0.00   52.6    52    8.3   174    13.3   823.1    0.00 
 294    1:20   0.00   52.5    53   10.3   166    16.6   823.0    0.00 
 294    1:30   0.00   53.3    52    8.2   167    17.0   823.2    0.00 
 294    1:40   0.00   53.2    52    6.2   180    13.4   823.3    0.00 
 294    1:50   0.00   54.1    51   10.9   155    20.2   823.1    0.00 
 294    2:00   0.00   55.0    50   13.0   145    21.3   823.0    0.00 
 294    2:10   0.00   55.2    50   14.8   137    24.9   822.9    0.00 
 294    2:20   0.00   55.5    49   12.3   140    21.0   823.0    0.00 
 294    2:30   0.00   55.0    50   15.7   134    22.1   822.8    0.00 
 294    2:40   0.00   54.6    50   10.6   166    23.0   823.1    0.00 
 294    2:50   0.00   56.1    43    9.8   158    20.0   823.2    0.00 
 294    3:00   0.00   55.6    44    5.5   126    13.4   823.1    0.00 
 294    3:10   0.00   56.3    42    6.9   124    14.5   823.2    0.00 
 294    3:20   0.00   55.4    45    5.1   115    11.8   823.3    0.00 
 294    3:30   0.00   54.4    48    3.6   110     8.6   823.3    0.00 
 294    3:40   0.00   56.5    40    3.2   310     9.1   823.4    0.00 
 294    3:50   0.00   56.3    40    5.3   333    14.5   823.3    0.00 
 294    4:00   0.00   57.6    35    6.4   297    22.6   823.4    0.00 
 294    4:10   0.00   59.4    32   11.0   262    23.0   823.4    0.00 
 294    4:20   0.00   59.6    32    5.6   341    13.0   823.6    0.00 
 294    4:30   0.00   59.1    33    8.2   299    17.5   823.8    0.00 
 294    4:40   0.00   57.7    38    5.8   149    16.1   824.0    0.00 
 294    4:50   0.00   54.6    48    8.4   131    16.8   824.1    0.00 
 294    5:00   0.00   54.7    47   10.4   138    18.3   824.1    0.00 
 294    5:10   0.00   55.3    47    9.2   158    23.9   824.3    0.00 
 294    5:20   0.00   55.7    46    9.7   179    17.4   824.4    0.00 
 294    5:30   0.00   55.3    48    9.7   163    23.9   824.4    0.00 
 294    5:40   0.00   55.6    46   10.6   174    18.1   824.2    0.00 
 294    5:50   0.00   56.5    42    8.1   166    17.2   824.4    0.00 
 294    6:00   0.01   56.4    44   12.0   150    19.5   824.3    0.00 
 294    6:10   0.02   55.3    47    6.8   152    16.9   824.5    0.00 
 294    6:20   0.04   55.0    47    7.9   143    20.2   824.3    0.00 
 294    6:30   0.08   55.5    47    5.8   143    14.2   824.7    0.00 
 294    6:40   0.11   56.1    47    3.7   149     8.8   824.7    0.00 
 294    6:50   0.15   55.7    49    6.5   162    11.4   824.8    0.00 
 294    7:00   0.17   55.6    50    7.2   176    13.0   824.8    0.00 
 294    7:10   0.21   56.0    49   10.8   156    17.8   824.9    0.00 

Return to North Spring Valley graphs page.


Western Regional Climate Center,wrcc@dri.edu